sensor_id;sensor_type;location;lat;lon;timestamp;P1;durP1;ratioP1;P2;durP2;ratioP2
8419;SDS011;4247;48.550;8.822;2023-08-12T00:01:09;1.50;;;1.40;;
8419;SDS011;4247;48.550;8.822;2023-08-12T00:03:36;5.10;;;1.90;;
8419;SDS011;4247;48.550;8.822;2023-08-12T00:06:03;1.70;;;1.23;;
8419;SDS011;4247;48.550;8.822;2023-08-12T00:08:30;3.23;;;1.60;;
8419;SDS011;4247;48.550;8.822;2023-08-12T00:10:57;2.17;;;1.97;;
8419;SDS011;4247;48.550;8.822;2023-08-12T00:13:23;2.40;;;1.90;;
8419;SDS011;4247;48.550;8.822;2023-08-12T00:15:51;9.20;;;2.73;;
8419;SDS011;4247;48.550;8.822;2023-08-12T00:18:19;3.40;;;1.50;;
8419;SDS011;4247;48.550;8.822;2023-08-12T00:20:46;2.47;;;2.03;;
8419;SDS011;4247;48.550;8.822;2023-08-12T00:23:13;5.07;;;1.97;;
8419;SDS011;4247;48.550;8.822;2023-08-12T00:25:39;2.20;;;1.77;;
8419;SDS011;4247;48.550;8.822;2023-08-12T00:28:06;5.83;;;2.33;;
8419;SDS011;4247;48.550;8.822;2023-08-12T00:30:33;2.60;;;2.07;;
8419;SDS011;4247;48.550;8.822;2023-08-12T00:32:59;2.70;;;1.70;;
8419;SDS011;4247;48.550;8.822;2023-08-12T00:35:28;2.20;;;1.70;;
8419;SDS011;4247;48.550;8.822;2023-08-12T00:37:55;2.10;;;1.70;;
8419;SDS011;4247;48.550;8.822;2023-08-12T00:40:21;4.90;;;1.60;;
8419;SDS011;4247;48.550;8.822;2023-08-12T00:42:49;3.60;;;2.10;;
8419;SDS011;4247;48.550;8.822;2023-08-12T00:45:16;2.47;;;2.27;;
8419;SDS011;4247;48.550;8.822;2023-08-12T00:47:42;1.50;;;1.40;;
8419;SDS011;4247;48.550;8.822;2023-08-12T00:50:09;3.07;;;1.60;;
8419;SDS011;4247;48.550;8.822;2023-08-12T00:52:40;2.50;;;2.20;;
8419;SDS011;4247;48.550;8.822;2023-08-12T00:55:07;2.07;;;1.87;;
8419;SDS011;4247;48.550;8.822;2023-08-12T00:57:34;1.80;;;1.70;;
8419;SDS011;4247;48.550;8.822;2023-08-12T01:00:02;1.33;;;1.23;;
8419;SDS011;4247;48.550;8.822;2023-08-12T01:02:29;4.87;;;2.10;;
8419;SDS011;4247;48.550;8.822;2023-08-12T01:04:56;1.87;;;1.77;;
8419;SDS011;4247;48.550;8.822;2023-08-12T01:07:24;1.73;;;1.63;;
8419;SDS011;4247;48.550;8.822;2023-08-12T01:09:52;1.87;;;1.77;;
8419;SDS011;4247;48.550;8.822;2023-08-12T01:12:21;2.53;;;2.20;;
8419;SDS011;4247;48.550;8.822;2023-08-12T01:14:56;2.60;;;1.83;;
8419;SDS011;4247;48.550;8.822;2023-08-12T01:17:27;3.17;;;1.83;;
8419;SDS011;4247;48.550;8.822;2023-08-12T01:19:56;3.13;;;2.20;;
8419;SDS011;4247;48.550;8.822;2023-08-12T01:22:24;4.27;;;1.93;;
8419;SDS011;4247;48.550;8.822;2023-08-12T01:24:54;2.23;;;1.80;;
8419;SDS011;4247;48.550;8.822;2023-08-12T01:27:21;10.63;;;2.40;;
8419;SDS011;4247;48.550;8.822;2023-08-12T01:29:49;2.13;;;1.67;;
8419;SDS011;4247;48.550;8.822;2023-08-12T01:32:20;1.50;;;1.40;;
8419;SDS011;4247;48.550;8.822;2023-08-12T01:34:53;2.40;;;1.73;;
8419;SDS011;4247;48.550;8.822;2023-08-12T01:37:25;3.47;;;1.90;;
8419;SDS011;4247;48.550;8.822;2023-08-12T01:39:56;2.43;;;1.63;;
8419;SDS011;4247;48.550;8.822;2023-08-12T01:42:25;2.30;;;1.50;;
8419;SDS011;4247;48.550;8.822;2023-08-12T01:44:54;1.67;;;1.57;;
8419;SDS011;4247;48.550;8.822;2023-08-12T01:47:22;1.90;;;1.80;;
8419;SDS011;4247;48.550;8.822;2023-08-12T01:49:49;2.07;;;1.53;;
8419;SDS011;4247;48.550;8.822;2023-08-12T01:52:15;1.77;;;1.63;;
8419;SDS011;4247;48.550;8.822;2023-08-12T01:54:42;3.77;;;1.77;;
8419;SDS011;4247;48.550;8.822;2023-08-12T01:57:10;1.97;;;1.73;;
8419;SDS011;4247;48.550;8.822;2023-08-12T01:59:37;1.90;;;1.80;;
8419;SDS011;4247;48.550;8.822;2023-08-12T02:02:04;2.63;;;2.03;;
8419;SDS011;4247;48.550;8.822;2023-08-12T02:04:31;2.77;;;2.57;;
8419;SDS011;4247;48.550;8.822;2023-08-12T02:06:59;4.10;;;1.90;;
8419;SDS011;4247;48.550;8.822;2023-08-12T02:09:26;3.33;;;1.70;;
8419;SDS011;4247;48.550;8.822;2023-08-12T02:11:52;2.40;;;2.20;;
8419;SDS011;4247;48.550;8.822;2023-08-12T02:14:20;1.63;;;1.53;;
8419;SDS011;4247;48.550;8.822;2023-08-12T02:16:47;1.90;;;1.80;;
8419;SDS011;4247;48.550;8.822;2023-08-12T02:19:14;4.23;;;1.70;;
8419;SDS011;4247;48.550;8.822;2023-08-12T02:21:40;1.70;;;1.60;;
8419;SDS011;4247;48.550;8.822;2023-08-12T02:24:07;2.20;;;2.00;;
8419;SDS011;4247;48.550;8.822;2023-08-12T02:26:34;2.07;;;1.87;;
8419;SDS011;4247;48.550;8.822;2023-08-12T02:29:01;1.93;;;1.80;;
8419;SDS011;4247;48.550;8.822;2023-08-12T02:31:29;2.20;;;1.93;;
8419;SDS011;4247;48.550;8.822;2023-08-12T02:33:56;2.23;;;2.03;;
8419;SDS011;4247;48.550;8.822;2023-08-12T02:36:23;1.87;;;1.77;;
8419;SDS011;4247;48.550;8.822;2023-08-12T02:38:50;2.13;;;1.93;;
8419;SDS011;4247;48.550;8.822;2023-08-12T02:41:17;1.90;;;1.70;;
8419;SDS011;4247;48.550;8.822;2023-08-12T02:43:44;2.80;;;1.80;;
8419;SDS011;4247;48.550;8.822;2023-08-12T02:46:10;1.70;;;1.60;;
8419;SDS011;4247;48.550;8.822;2023-08-12T02:48:39;2.27;;;2.07;;
8419;SDS011;4247;48.550;8.822;2023-08-12T02:51:05;2.03;;;1.90;;
8419;SDS011;4247;48.550;8.822;2023-08-12T02:53:32;2.33;;;2.13;;
8419;SDS011;4247;48.550;8.822;2023-08-12T02:55:59;2.40;;;2.17;;
8419;SDS011;4247;48.550;8.822;2023-08-12T02:58:26;4.67;;;2.50;;
8419;SDS011;4247;48.550;8.822;2023-08-12T03:00:54;2.13;;;2.03;;
8419;SDS011;4247;48.550;8.822;2023-08-12T03:03:20;4.70;;;2.10;;
8419;SDS011;4247;48.550;8.822;2023-08-12T03:05:49;2.53;;;2.33;;
8419;SDS011;4247;48.550;8.822;2023-08-12T03:08:15;2.47;;;2.27;;
8419;SDS011;4247;48.550;8.822;2023-08-12T03:10:45;3.27;;;2.50;;
8419;SDS011;4247;48.550;8.822;2023-08-12T03:13:12;3.73;;;2.40;;
8419;SDS011;4247;48.550;8.822;2023-08-12T03:15:38;2.10;;;2.00;;
8419;SDS011;4247;48.550;8.822;2023-08-12T03:18:05;5.50;;;3.03;;
8419;SDS011;4247;48.550;8.822;2023-08-12T03:20:32;2.60;;;2.40;;
8419;SDS011;4247;48.550;8.822;2023-08-12T03:23:00;2.50;;;2.30;;
8419;SDS011;4247;48.550;8.822;2023-08-12T03:25:27;2.40;;;2.20;;
8419;SDS011;4247;48.550;8.822;2023-08-12T03:27:53;2.23;;;2.00;;
8419;SDS011;4247;48.550;8.822;2023-08-12T03:30:20;5.00;;;2.53;;
8419;SDS011;4247;48.550;8.822;2023-08-12T03:32:47;3.30;;;3.00;;
8419;SDS011;4247;48.550;8.822;2023-08-12T03:35:14;2.40;;;2.20;;
8419;SDS011;4247;48.550;8.822;2023-08-12T03:37:41;2.60;;;2.10;;
8419;SDS011;4247;48.550;8.822;2023-08-12T03:40:09;2.97;;;2.43;;
8419;SDS011;4247;48.550;8.822;2023-08-12T03:42:36;2.47;;;2.23;;
8419;SDS011;4247;48.550;8.822;2023-08-12T03:45:03;2.77;;;2.50;;
8419;SDS011;4247;48.550;8.822;2023-08-12T03:47:31;2.50;;;2.30;;
8419;SDS011;4247;48.550;8.822;2023-08-12T03:49:57;3.00;;;2.77;;
8419;SDS011;4247;48.550;8.822;2023-08-12T03:52:24;2.23;;;1.87;;
8419;SDS011;4247;48.550;8.822;2023-08-12T03:54:51;2.77;;;2.57;;
8419;SDS011;4247;48.550;8.822;2023-08-12T03:57:20;2.63;;;2.43;;
8419;SDS011;4247;48.550;8.822;2023-08-12T03:59:47;6.23;;;2.47;;
8419;SDS011;4247;48.550;8.822;2023-08-12T04:02:14;3.97;;;2.40;;
8419;SDS011;4247;48.550;8.822;2023-08-12T04:04:40;3.97;;;2.30;;
8419;SDS011;4247;48.550;8.822;2023-08-12T04:07:09;2.80;;;2.60;;
8419;SDS011;4247;48.550;8.822;2023-08-12T04:09:35;3.77;;;2.30;;
8419;SDS011;4247;48.550;8.822;2023-08-12T04:12:02;2.90;;;2.53;;
8419;SDS011;4247;48.550;8.822;2023-08-12T04:14:30;2.50;;;2.00;;
8419;SDS011;4247;48.550;8.822;2023-08-12T04:16:57;3.17;;;2.83;;
8419;SDS011;4247;48.550;8.822;2023-08-12T04:19:24;3.17;;;2.00;;
8419;SDS011;4247;48.550;8.822;2023-08-12T04:21:50;1.90;;;1.80;;
8419;SDS011;4247;48.550;8.822;2023-08-12T04:24:17;2.83;;;2.63;;
8419;SDS011;4247;48.550;8.822;2023-08-12T04:26:44;2.63;;;2.27;;
8419;SDS011;4247;48.550;8.822;2023-08-12T04:29:10;2.30;;;2.10;;
8419;SDS011;4247;48.550;8.822;2023-08-12T04:31:39;5.13;;;2.50;;
8419;SDS011;4247;48.550;8.822;2023-08-12T04:34:06;2.80;;;2.60;;
8419;SDS011;4247;48.550;8.822;2023-08-12T04:36:33;2.53;;;2.33;;
8419;SDS011;4247;48.550;8.822;2023-08-12T04:39:00;2.67;;;2.47;;
8419;SDS011;4247;48.550;8.822;2023-08-12T04:41:27;2.07;;;1.97;;
8419;SDS011;4247;48.550;8.822;2023-08-12T04:43:54;2.43;;;2.27;;
8419;SDS011;4247;48.550;8.822;2023-08-12T04:46:21;3.77;;;2.50;;
8419;SDS011;4247;48.550;8.822;2023-08-12T04:48:49;3.53;;;3.00;;
8419;SDS011;4247;48.550;8.822;2023-08-12T04:51:16;3.50;;;2.77;;
8419;SDS011;4247;48.550;8.822;2023-08-12T04:53:42;2.37;;;2.17;;
8419;SDS011;4247;48.550;8.822;2023-08-12T04:56:09;4.07;;;2.90;;
8419;SDS011;4247;48.550;8.822;2023-08-12T04:58:36;5.33;;;2.33;;
8419;SDS011;4247;48.550;8.822;2023-08-12T05:01:03;6.10;;;2.90;;
8419;SDS011;4247;48.550;8.822;2023-08-12T05:03:29;3.47;;;2.80;;
8419;SDS011;4247;48.550;8.822;2023-08-12T05:05:58;6.93;;;2.63;;
8419;SDS011;4247;48.550;8.822;2023-08-12T05:08:24;5.60;;;3.50;;
8419;SDS011;4247;48.550;8.822;2023-08-12T05:10:51;2.90;;;2.60;;
8419;SDS011;4247;48.550;8.822;2023-08-12T05:13:18;7.13;;;3.33;;
8419;SDS011;4247;48.550;8.822;2023-08-12T05:15:45;5.93;;;2.37;;
8419;SDS011;4247;48.550;8.822;2023-08-12T05:18:13;4.90;;;3.27;;
8419;SDS011;4247;48.550;8.822;2023-08-12T05:20:39;4.43;;;3.23;;
8419;SDS011;4247;48.550;8.822;2023-08-12T05:23:08;5.97;;;3.23;;
8419;SDS011;4247;48.550;8.822;2023-08-12T05:25:35;8.13;;;3.27;;
8419;SDS011;4247;48.550;8.822;2023-08-12T05:28:01;3.33;;;2.77;;
8419;SDS011;4247;48.550;8.822;2023-08-12T05:30:28;7.07;;;2.80;;
8419;SDS011;4247;48.550;8.822;2023-08-12T05:32:55;2.97;;;2.77;;
8419;SDS011;4247;48.550;8.822;2023-08-12T05:35:22;3.23;;;2.70;;
8419;SDS011;4247;48.550;8.822;2023-08-12T05:37:49;3.33;;;3.03;;
8419;SDS011;4247;48.550;8.822;2023-08-12T05:40:17;6.87;;;3.50;;
8419;SDS011;4247;48.550;8.822;2023-08-12T05:42:43;6.13;;;2.40;;
8419;SDS011;4247;48.550;8.822;2023-08-12T05:45:10;4.37;;;3.13;;
8419;SDS011;4247;48.550;8.822;2023-08-12T05:47:37;4.33;;;3.30;;
8419;SDS011;4247;48.550;8.822;2023-08-12T05:50:04;7.60;;;3.33;;
8419;SDS011;4247;48.550;8.822;2023-08-12T05:52:32;4.90;;;3.17;;
8419;SDS011;4247;48.550;8.822;2023-08-12T05:54:59;4.70;;;2.70;;
8419;SDS011;4247;48.550;8.822;2023-08-12T05:57:27;4.80;;;2.97;;
8419;SDS011;4247;48.550;8.822;2023-08-12T05:59:54;6.27;;;3.03;;
8419;SDS011;4247;48.550;8.822;2023-08-12T06:02:21;3.40;;;2.40;;
8419;SDS011;4247;48.550;8.822;2023-08-12T06:04:47;2.80;;;2.50;;
8419;SDS011;4247;48.550;8.822;2023-08-12T06:07:14;3.73;;;2.53;;
8419;SDS011;4247;48.550;8.822;2023-08-12T06:09:41;3.93;;;2.37;;
8419;SDS011;4247;48.550;8.822;2023-08-12T06:12:08;3.07;;;2.77;;
8419;SDS011;4247;48.550;8.822;2023-08-12T06:14:36;2.30;;;2.10;;
8419;SDS011;4247;48.550;8.822;2023-08-12T06:17:04;4.57;;;2.60;;
8419;SDS011;4247;48.550;8.822;2023-08-12T06:19:30;2.67;;;2.27;;
8419;SDS011;4247;48.550;8.822;2023-08-12T06:21:57;1.87;;;1.77;;
8419;SDS011;4247;48.550;8.822;2023-08-12T06:24:24;6.07;;;2.93;;
8419;SDS011;4247;48.550;8.822;2023-08-12T06:26:51;3.03;;;2.77;;
8419;SDS011;4247;48.550;8.822;2023-08-12T06:29:17;2.17;;;2.07;;
8419;SDS011;4247;48.550;8.822;2023-08-12T06:31:45;2.97;;;2.77;;
8419;SDS011;4247;48.550;8.822;2023-08-12T06:34:12;4.73;;;3.00;;
8419;SDS011;4247;48.550;8.822;2023-08-12T06:36:39;2.87;;;2.57;;
8419;SDS011;4247;48.550;8.822;2023-08-12T06:39:05;2.17;;;1.97;;
8419;SDS011;4247;48.550;8.822;2023-08-12T06:41:32;3.97;;;2.37;;
8419;SDS011;4247;48.550;8.822;2023-08-12T06:43:59;8.37;;;2.73;;
8419;SDS011;4247;48.550;8.822;2023-08-12T06:46:26;4.47;;;2.83;;
8419;SDS011;4247;48.550;8.822;2023-08-12T06:48:54;3.13;;;2.63;;
8419;SDS011;4247;48.550;8.822;2023-08-12T06:51:21;3.07;;;2.77;;
8419;SDS011;4247;48.550;8.822;2023-08-12T06:53:48;6.27;;;2.13;;
8419;SDS011;4247;48.550;8.822;2023-08-12T06:56:14;3.67;;;2.83;;
8419;SDS011;4247;48.550;8.822;2023-08-12T06:58:41;2.83;;;2.23;;
8419;SDS011;4247;48.550;8.822;2023-08-12T07:01:08;3.17;;;2.93;;
8419;SDS011;4247;48.550;8.822;2023-08-12T07:03:34;4.83;;;2.60;;
8419;SDS011;4247;48.550;8.822;2023-08-12T07:06:02;6.47;;;2.37;;
8419;SDS011;4247;48.550;8.822;2023-08-12T07:08:29;2.30;;;2.07;;
8419;SDS011;4247;48.550;8.822;2023-08-12T07:10:57;4.13;;;2.43;;
8419;SDS011;4247;48.550;8.822;2023-08-12T07:13:23;3.23;;;2.10;;
8419;SDS011;4247;48.550;8.822;2023-08-12T07:15:50;4.53;;;2.00;;
8419;SDS011;4247;48.550;8.822;2023-08-12T07:18:17;3.97;;;1.93;;
8419;SDS011;4247;48.550;8.822;2023-08-12T07:20:43;3.83;;;2.00;;
8419;SDS011;4247;48.550;8.822;2023-08-12T07:23:11;2.13;;;1.93;;
8419;SDS011;4247;48.550;8.822;2023-08-12T07:25:38;1.57;;;1.47;;
8419;SDS011;4247;48.550;8.822;2023-08-12T07:28:05;5.20;;;1.90;;
8419;SDS011;4247;48.550;8.822;2023-08-12T07:30:33;3.90;;;1.50;;
8419;SDS011;4247;48.550;8.822;2023-08-12T07:33:01;14.17;;;2.67;;
8419;SDS011;4247;48.550;8.822;2023-08-12T07:35:27;3.47;;;1.90;;
8419;SDS011;4247;48.550;8.822;2023-08-12T07:37:54;4.40;;;1.80;;
8419;SDS011;4247;48.550;8.822;2023-08-12T07:40:22;3.10;;;2.07;;
8419;SDS011;4247;48.550;8.822;2023-08-12T07:42:49;2.03;;;1.83;;
8419;SDS011;4247;48.550;8.822;2023-08-12T07:45:15;2.97;;;1.93;;
8419;SDS011;4247;48.550;8.822;2023-08-12T07:47:42;1.80;;;1.70;;
8419;SDS011;4247;48.550;8.822;2023-08-12T07:50:09;2.13;;;2.03;;
8419;SDS011;4247;48.550;8.822;2023-08-12T07:52:36;7.07;;;1.97;;
8419;SDS011;4247;48.550;8.822;2023-08-12T07:55:03;1.60;;;1.50;;
8419;SDS011;4247;48.550;8.822;2023-08-12T07:57:32;2.20;;;2.10;;
8419;SDS011;4247;48.550;8.822;2023-08-12T07:59:59;2.17;;;1.97;;
8419;SDS011;4247;48.550;8.822;2023-08-12T08:02:26;1.73;;;1.63;;
8419;SDS011;4247;48.550;8.822;2023-08-12T08:04:52;2.03;;;1.20;;
8419;SDS011;4247;48.550;8.822;2023-08-12T08:07:19;1.53;;;1.43;;
8419;SDS011;4247;48.550;8.822;2023-08-12T08:09:46;2.63;;;2.20;;
8419;SDS011;4247;48.550;8.822;2023-08-12T08:12:13;7.50;;;2.40;;
8419;SDS011;4247;48.550;8.822;2023-08-12T08:14:41;2.10;;;1.37;;
8419;SDS011;4247;48.550;8.822;2023-08-12T08:17:07;1.87;;;1.67;;
8419;SDS011;4247;48.550;8.822;2023-08-12T08:19:34;2.43;;;1.43;;
8419;SDS011;4247;48.550;8.822;2023-08-12T08:22:01;2.23;;;2.00;;
8419;SDS011;4247;48.550;8.822;2023-08-12T08:24:28;2.20;;;1.80;;
8419;SDS011;4247;48.550;8.822;2023-08-12T08:26:54;1.50;;;1.40;;
8419;SDS011;4247;48.550;8.822;2023-08-12T08:29:21;2.10;;;1.70;;
8419;SDS011;4247;48.550;8.822;2023-08-12T08:31:49;1.67;;;1.20;;
8419;SDS011;4247;48.550;8.822;2023-08-12T08:34:16;2.40;;;1.70;;
8419;SDS011;4247;48.550;8.822;2023-08-12T08:36:43;3.33;;;2.30;;
8419;SDS011;4247;48.550;8.822;2023-08-12T08:39:10;2.97;;;1.57;;
8419;SDS011;4247;48.550;8.822;2023-08-12T08:41:37;4.67;;;1.77;;
8419;SDS011;4247;48.550;8.822;2023-08-12T08:44:06;1.43;;;1.30;;
8419;SDS011;4247;48.550;8.822;2023-08-12T08:46:34;5.80;;;1.50;;
8419;SDS011;4247;48.550;8.822;2023-08-12T08:49:02;1.50;;;1.40;;
8419;SDS011;4247;48.550;8.822;2023-08-12T08:51:31;1.97;;;1.10;;
8419;SDS011;4247;48.550;8.822;2023-08-12T08:53:58;2.60;;;1.70;;
8419;SDS011;4247;48.550;8.822;2023-08-12T08:56:25;1.93;;;1.53;;
8419;SDS011;4247;48.550;8.822;2023-08-12T08:58:52;4.30;;;1.40;;
8419;SDS011;4247;48.550;8.822;2023-08-12T09:01:19;4.43;;;1.17;;
8419;SDS011;4247;48.550;8.822;2023-08-12T09:03:48;3.23;;;1.20;;
8419;SDS011;4247;48.550;8.822;2023-08-12T09:06:18;2.23;;;1.43;;
8419;SDS011;4247;48.550;8.822;2023-08-12T09:08:46;6.33;;;1.60;;
8419;SDS011;4247;48.550;8.822;2023-08-12T09:11:15;1.60;;;1.27;;
8419;SDS011;4247;48.550;8.822;2023-08-12T09:13:43;3.30;;;1.50;;
8419;SDS011;4247;48.550;8.822;2023-08-12T09:16:10;2.80;;;1.40;;
8419;SDS011;4247;48.550;8.822;2023-08-12T09:18:37;1.40;;;1.30;;
8419;SDS011;4247;48.550;8.822;2023-08-12T09:21:04;5.83;;;1.57;;
8419;SDS011;4247;48.550;8.822;2023-08-12T09:23:35;1.53;;;1.00;;
8419;SDS011;4247;48.550;8.822;2023-08-12T09:26:03;1.63;;;1.33;;
8419;SDS011;4247;48.550;8.822;2023-08-12T09:28:39;2.17;;;1.87;;
8419;SDS011;4247;48.550;8.822;2023-08-12T09:31:05;3.33;;;1.33;;
8419;SDS011;4247;48.550;8.822;2023-08-12T09:33:32;1.47;;;1.17;;
8419;SDS011;4247;48.550;8.822;2023-08-12T09:36:04;7.07;;;1.53;;
8419;SDS011;4247;48.550;8.822;2023-08-12T09:38:31;2.83;;;1.47;;
8419;SDS011;4247;48.550;8.822;2023-08-12T09:40:59;3.27;;;1.37;;
8419;SDS011;4247;48.550;8.822;2023-08-12T09:43:27;2.50;;;1.60;;
8419;SDS011;4247;48.550;8.822;2023-08-12T09:45:55;1.83;;;1.63;;
8419;SDS011;4247;48.550;8.822;2023-08-12T09:48:23;1.50;;;1.40;;
8419;SDS011;4247;48.550;8.822;2023-08-12T09:50:51;1.97;;;1.53;;
8419;SDS011;4247;48.550;8.822;2023-08-12T09:53:18;1.60;;;1.50;;
8419;SDS011;4247;48.550;8.822;2023-08-12T09:55:46;2.00;;;1.50;;
8419;SDS011;4247;48.550;8.822;2023-08-12T09:58:15;5.23;;;1.17;;
8419;SDS011;4247;48.550;8.822;2023-08-12T10:00:44;4.37;;;1.80;;
8419;SDS011;4247;48.550;8.822;2023-08-12T10:03:11;3.30;;;1.37;;
8419;SDS011;4247;48.550;8.822;2023-08-12T10:05:40;4.70;;;2.17;;
8419;SDS011;4247;48.550;8.822;2023-08-12T10:08:07;4.27;;;1.87;;
8419;SDS011;4247;48.550;8.822;2023-08-12T10:10:35;2.57;;;1.50;;
8419;SDS011;4247;48.550;8.822;2023-08-12T10:13:02;6.80;;;2.00;;
8419;SDS011;4247;48.550;8.822;2023-08-12T10:15:33;2.80;;;1.27;;
8419;SDS011;4247;48.550;8.822;2023-08-12T10:18:00;5.63;;;1.30;;
8419;SDS011;4247;48.550;8.822;2023-08-12T10:20:27;5.33;;;1.50;;
8419;SDS011;4247;48.550;8.822;2023-08-12T10:22:57;1.40;;;1.30;;
8419;SDS011;4247;48.550;8.822;2023-08-12T10:25:28;2.60;;;2.00;;
8419;SDS011;4247;48.550;8.822;2023-08-12T10:27:58;1.37;;;1.27;;
8419;SDS011;4247;48.550;8.822;2023-08-12T10:30:27;1.60;;;1.50;;
8419;SDS011;4247;48.550;8.822;2023-08-12T10:32:56;3.43;;;2.00;;
8419;SDS011;4247;48.550;8.822;2023-08-12T10:35:33;1.53;;;1.43;;
8419;SDS011;4247;48.550;8.822;2023-08-12T10:38:07;4.23;;;1.30;;
8419;SDS011;4247;48.550;8.822;2023-08-12T10:40:34;2.70;;;1.03;;
8419;SDS011;4247;48.550;8.822;2023-08-12T10:43:01;1.27;;;1.23;;
8419;SDS011;4247;48.550;8.822;2023-08-12T10:45:40;1.33;;;1.13;;
8419;SDS011;4247;48.550;8.822;2023-08-12T10:48:19;1.40;;;1.17;;
8419;SDS011;4247;48.550;8.822;2023-08-12T10:50:48;3.73;;;1.10;;
8419;SDS011;4247;48.550;8.822;2023-08-12T10:53:21;4.07;;;1.30;;
8419;SDS011;4247;48.550;8.822;2023-08-12T10:55:54;6.40;;;1.33;;
8419;SDS011;4247;48.550;8.822;2023-08-12T10:58:26;1.43;;;1.13;;
8419;SDS011;4247;48.550;8.822;2023-08-12T11:00:54;1.03;;;1.00;;
8419;SDS011;4247;48.550;8.822;2023-08-12T11:03:23;2.00;;;1.20;;
8419;SDS011;4247;48.550;8.822;2023-08-12T11:05:50;2.73;;;1.10;;
8419;SDS011;4247;48.550;8.822;2023-08-12T11:08:23;1.40;;;1.30;;
8419;SDS011;4247;48.550;8.822;2023-08-12T11:10:51;2.43;;;1.63;;
8419;SDS011;4247;48.550;8.822;2023-08-12T11:13:19;2.40;;;1.40;;
8419;SDS011;4247;48.550;8.822;2023-08-12T11:15:46;2.23;;;1.20;;
8419;SDS011;4247;48.550;8.822;2023-08-12T11:18:15;2.73;;;0.93;;
8419;SDS011;4247;48.550;8.822;2023-08-12T11:20:44;1.60;;;1.27;;
8419;SDS011;4247;48.550;8.822;2023-08-12T11:23:12;2.90;;;1.10;;
8419;SDS011;4247;48.550;8.822;2023-08-12T11:25:39;1.00;;;1.00;;
8419;SDS011;4247;48.550;8.822;2023-08-12T11:28:09;1.37;;;1.27;;
8419;SDS011;4247;48.550;8.822;2023-08-12T11:30:36;1.10;;;1.00;;
8419;SDS011;4247;48.550;8.822;2023-08-12T11:33:02;1.93;;;1.20;;
8419;SDS011;4247;48.550;8.822;2023-08-12T11:35:30;1.13;;;1.00;;
8419;SDS011;4247;48.550;8.822;2023-08-12T11:37:58;1.23;;;0.97;;
8419;SDS011;4247;48.550;8.822;2023-08-12T11:40:26;2.87;;;1.20;;
8419;SDS011;4247;48.550;8.822;2023-08-12T11:42:54;3.33;;;1.40;;
8419;SDS011;4247;48.550;8.822;2023-08-12T11:45:22;1.07;;;0.83;;
8419;SDS011;4247;48.550;8.822;2023-08-12T11:47:49;1.70;;;1.27;;
8419;SDS011;4247;48.550;8.822;2023-08-12T11:50:18;1.40;;;1.00;;
8419;SDS011;4247;48.550;8.822;2023-08-12T11:52:46;3.13;;;1.20;;
8419;SDS011;4247;48.550;8.822;2023-08-12T11:55:15;1.20;;;0.70;;
8419;SDS011;4247;48.550;8.822;2023-08-12T11:57:43;1.13;;;1.03;;
8419;SDS011;4247;48.550;8.822;2023-08-12T12:00:10;4.37;;;1.23;;
8419;SDS011;4247;48.550;8.822;2023-08-12T12:02:39;1.90;;;1.00;;
8419;SDS011;4247;48.550;8.822;2023-08-12T12:05:08;1.70;;;1.00;;
8419;SDS011;4247;48.550;8.822;2023-08-12T12:07:37;2.00;;;0.80;;
8419;SDS011;4247;48.550;8.822;2023-08-12T12:10:04;1.50;;;1.00;;
8419;SDS011;4247;48.550;8.822;2023-08-12T12:12:34;4.50;;;1.37;;
8419;SDS011;4247;48.550;8.822;2023-08-12T12:15:01;2.40;;;1.63;;
8419;SDS011;4247;48.550;8.822;2023-08-12T12:17:29;1.27;;;0.80;;
8419;SDS011;4247;48.550;8.822;2023-08-12T12:19:56;1.97;;;0.93;;
8419;SDS011;4247;48.550;8.822;2023-08-12T12:22:28;1.67;;;1.33;;
8419;SDS011;4247;48.550;8.822;2023-08-12T12:24:57;2.60;;;1.00;;
8419;SDS011;4247;48.550;8.822;2023-08-12T12:27:25;3.10;;;0.90;;
8419;SDS011;4247;48.550;8.822;2023-08-12T12:29:53;4.37;;;1.17;;
8419;SDS011;4247;48.550;8.822;2023-08-12T12:32:20;1.50;;;1.00;;
8419;SDS011;4247;48.550;8.822;2023-08-12T12:34:47;1.80;;;1.10;;
8419;SDS011;4247;48.550;8.822;2023-08-12T12:37:14;2.27;;;1.07;;
8419;SDS011;4247;48.550;8.822;2023-08-12T12:39:41;4.40;;;1.20;;
8419;SDS011;4247;48.550;8.822;2023-08-12T12:42:08;1.60;;;0.93;;
8419;SDS011;4247;48.550;8.822;2023-08-12T12:44:34;1.17;;;0.93;;
8419;SDS011;4247;48.550;8.822;2023-08-12T12:47:03;2.37;;;0.97;;
8419;SDS011;4247;48.550;8.822;2023-08-12T12:49:30;4.53;;;1.60;;
8419;SDS011;4247;48.550;8.822;2023-08-12T12:51:57;1.90;;;1.20;;
8419;SDS011;4247;48.550;8.822;2023-08-12T12:54:24;3.93;;;1.00;;
8419;SDS011;4247;48.550;8.822;2023-08-12T12:56:50;4.13;;;1.30;;
8419;SDS011;4247;48.550;8.822;2023-08-12T12:59:17;9.00;;;1.20;;
8419;SDS011;4247;48.550;8.822;2023-08-12T13:01:44;3.67;;;1.20;;
8419;SDS011;4247;48.550;8.822;2023-08-12T13:04:12;3.90;;;1.17;;
8419;SDS011;4247;48.550;8.822;2023-08-12T13:06:38;3.40;;;1.20;;
8419;SDS011;4247;48.550;8.822;2023-08-12T13:09:05;4.30;;;1.10;;
8419;SDS011;4247;48.550;8.822;2023-08-12T13:11:33;4.87;;;1.43;;
8419;SDS011;4247;48.550;8.822;2023-08-12T13:14:00;3.50;;;1.37;;
8419;SDS011;4247;48.550;8.822;2023-08-12T13:16:27;3.27;;;1.13;;
8419;SDS011;4247;48.550;8.822;2023-08-12T13:18:54;1.43;;;0.90;;
8419;SDS011;4247;48.550;8.822;2023-08-12T13:21:22;3.33;;;1.17;;
8419;SDS011;4247;48.550;8.822;2023-08-12T13:23:48;4.60;;;1.03;;
8419;SDS011;4247;48.550;8.822;2023-08-12T13:26:15;1.13;;;0.90;;
8419;SDS011;4247;48.550;8.822;2023-08-12T13:28:42;4.03;;;1.30;;
8419;SDS011;4247;48.550;8.822;2023-08-12T13:31:09;1.27;;;1.00;;
8419;SDS011;4247;48.550;8.822;2023-08-12T13:33:36;2.70;;;1.40;;
8419;SDS011;4247;48.550;8.822;2023-08-12T13:36:03;2.10;;;0.83;;
8419;SDS011;4247;48.550;8.822;2023-08-12T13:38:31;2.20;;;1.10;;
8419;SDS011;4247;48.550;8.822;2023-08-12T13:40:58;4.20;;;1.07;;
8419;SDS011;4247;48.550;8.822;2023-08-12T13:43:24;3.77;;;0.87;;
8419;SDS011;4247;48.550;8.822;2023-08-12T13:45:51;1.97;;;0.97;;
8419;SDS011;4247;48.550;8.822;2023-08-12T13:48:18;1.13;;;0.80;;
8419;SDS011;4247;48.550;8.822;2023-08-12T13:50:44;1.30;;;0.90;;
8419;SDS011;4247;48.550;8.822;2023-08-12T13:53:14;3.80;;;0.87;;
8419;SDS011;4247;48.550;8.822;2023-08-12T13:55:42;2.67;;;0.80;;
8419;SDS011;4247;48.550;8.822;2023-08-12T13:58:09;2.60;;;0.80;;
8419;SDS011;4247;48.550;8.822;2023-08-12T14:00:35;1.40;;;0.80;;
8419;SDS011;4247;48.550;8.822;2023-08-12T14:03:02;1.57;;;1.03;;
8419;SDS011;4247;48.550;8.822;2023-08-12T14:05:30;0.87;;;0.60;;
8419;SDS011;4247;48.550;8.822;2023-08-12T14:07:56;2.40;;;1.23;;
8419;SDS011;4247;48.550;8.822;2023-08-12T14:10:23;2.50;;;0.80;;
8419;SDS011;4247;48.550;8.822;2023-08-12T14:12:52;1.03;;;0.60;;
8419;SDS011;4247;48.550;8.822;2023-08-12T14:15:18;1.70;;;0.70;;
8419;SDS011;4247;48.550;8.822;2023-08-12T14:17:45;1.23;;;0.70;;
8419;SDS011;4247;48.550;8.822;2023-08-12T14:20:12;2.67;;;1.00;;
8419;SDS011;4247;48.550;8.822;2023-08-12T14:22:40;1.47;;;0.63;;
8419;SDS011;4247;48.550;8.822;2023-08-12T14:25:08;1.80;;;0.90;;
8419;SDS011;4247;48.550;8.822;2023-08-12T14:27:36;1.87;;;0.60;;
8419;SDS011;4247;48.550;8.822;2023-08-12T14:30:04;1.50;;;1.00;;
8419;SDS011;4247;48.550;8.822;2023-08-12T14:32:32;0.70;;;0.70;;
8419;SDS011;4247;48.550;8.822;2023-08-12T14:34:59;5.87;;;0.97;;
8419;SDS011;4247;48.550;8.822;2023-08-12T14:37:25;3.60;;;0.63;;
8419;SDS011;4247;48.550;8.822;2023-08-12T14:39:53;1.67;;;1.20;;
8419;SDS011;4247;48.550;8.822;2023-08-12T14:42:20;2.67;;;0.80;;
8419;SDS011;4247;48.550;8.822;2023-08-12T14:44:46;0.87;;;0.70;;
8419;SDS011;4247;48.550;8.822;2023-08-12T14:47:14;1.87;;;1.37;;
8419;SDS011;4247;48.550;8.822;2023-08-12T14:49:41;2.97;;;1.20;;
8419;SDS011;4247;48.550;8.822;2023-08-12T14:52:14;2.47;;;0.80;;
8419;SDS011;4247;48.550;8.822;2023-08-12T14:54:42;4.20;;;1.10;;
8419;SDS011;4247;48.550;8.822;2023-08-12T14:57:08;1.23;;;1.00;;
8419;SDS011;4247;48.550;8.822;2023-08-12T14:59:35;0.93;;;0.90;;
8419;SDS011;4247;48.550;8.822;2023-08-12T15:02:02;0.80;;;0.80;;
8419;SDS011;4247;48.550;8.822;2023-08-12T15:04:30;1.43;;;1.10;;
8419;SDS011;4247;48.550;8.822;2023-08-12T15:06:56;2.23;;;1.70;;
8419;SDS011;4247;48.550;8.822;2023-08-12T15:09:23;2.90;;;1.80;;
8419;SDS011;4247;48.550;8.822;2023-08-12T15:11:50;2.13;;;1.37;;
8419;SDS011;4247;48.550;8.822;2023-08-12T15:14:17;2.60;;;0.90;;
8419;SDS011;4247;48.550;8.822;2023-08-12T15:16:43;3.97;;;1.00;;